Detall de PIREP

Printer-friendly versionPDF version

[2012/09/28 20:18:00]
Flight IATA:CT1005
Pilot Number:037
Company ICAO:CAT
Aircraft Type:B752/E
PAX:105
Aircraft Registration:PAX
Departing Airport: EETN
Destination Airport: EFRO
Alternate Airport:EFHK
Online: VATSIM
Route:MOHNI M854 KEKOX
Flight Level:F350
No Slew and time accel
No pause
Crash detect
Detect pilot in Cockpit between each 30 and 45 minutes
20:18 Zero fuel Weight: 163234 Lbs, Fuel Weight: 26382 Lbs
20:18 VATSIM:EETN 281950Z 22009KT 9999 FEW020 SCT037 11/09 Q1004 NOSIG
20:18 VATSIM:EFRO 281950Z AUTO 29005KT 260V330 1500 BR VV002 03/03 Q0998
20:31 Parking Brakes off
20:40 Take-off
20:40 Take off Weight: 188251 Lbs
20:40 Wind: 214º @ 009 Knots Heading: 266º
20:40 POS N59º 24´ 47´´ E024º 49´ 37´´
20:40 Gear Up: 182 Knots
20:40 Flaps:2 at 182 Knots
20:40 Flaps:1 at 198 Knots
20:41 Flaps:0 at 225 Knots
20:55 Wind:241º@019 Knots Heading: 333º Ground Speed: 437 Knots Altitude 21751 ft
21:03 TOC
21:03 Fuel Weight: 19764 Lb
21:10 Wind:250º@007 Knots Heading: 003º Ground Speed: 465 Knots Altitude 34662 ft
21:25 Wind:279º@021 Knots Heading: 359º Ground Speed: 460 Knots Altitude 34648 ft
21:26 TOD
21:26 Fuel Weight: 16971 Lb
21:40 Wind:297º@013 Knots Heading: 000º Ground Speed: 344 Knots Altitude 13152 ft
21:51 Flaps:1 at 213 Knots
21:52 Flaps:2 at 195 Knots
21:55 Wind:302º@006 Knots Heading: 184º Ground Speed: 186 Knots Altitude 2201 ft
21:55 Flaps:3 at 173 Knots
21:56 Flaps:4 at 171 Knots
21:56 Gear Down: 170 Knots
21:57 Flaps:5 at 139 Knots
21:57 TouchDown:Rate -345 ft/min Speed: 133 Knots
21:57 VATSIM:EFRO 282120Z AUTO 31006KT 2000 BR VV002 03/03 Q0998
21:57 Land
21:57 Wind:302º@006 Knots
21:57 Heading: 216º
21:57 Flight Duration: 01:17
21:57 Landing Weight: 177769 Lbs
21:57 POS N66º 33´ 52´´ E025º 49´ 47´´
21:59 Parking brakes on
21:59 Block to Block Duration: 01:28
21:59 Final Fuel: 14354 Lbls
21:59 Spent Fuel: 12028 Lbls
21:59 Flight Length: 372 NM
21:59 TOD Land Length: 115 NM

Exportar CSV

Powered by Drupal - Modified by Danger4k